Time;durP1;ratioP1;P1;durP2;ratioP2;P2;SDS_P1;SDS_P2;PMS_P1;PMS_P2;Temp;Humidity;BMP_temperature;BMP_pressure;BME280_temperature;BME280_humidity;BME280_pressure;Samples;Min_cycle;Max_cycle;Signal;HPM_P1;HPM_P2
2023/02/08 00:00:22;;;;;;;3.30;1.70;;;;;;;;;;5056708;28;20033;-47
2023/02/08 00:02:48;;;;;;;3.08;2.42;;;;;;;;;;5057782;28;20041;-45
2023/02/08 00:05:14;;;;;;;4.13;2.38;;;;;;;;;;5050262;28;20044;-46
2023/02/08 00:07:40;;;;;;;4.65;1.83;;;;;;;;;;5059458;28;20473;-45
2023/02/08 00:10:06;;;;;;;2.83;2.33;;;;;;;;;;5054920;28;20036;-45
2023/02/08 00:12:33;;;;;;;3.38;2.20;;;;;;;;;;5053063;28;20029;-45
2023/02/08 00:14:59;;;;;;;3.42;2.05;;;;;;;;;;5053638;28;20025;-45
2023/02/08 00:17:25;;;;;;;3.35;2.40;;;;;;;;;;5056746;28;20035;-45
2023/02/08 00:19:51;;;;;;;4.05;2.20;;;;;;;;;;5055170;28;20025;-45
2023/02/08 00:22:17;;;;;;;2.83;2.08;;;;;;;;;;5054127;28;20063;-46
2023/02/08 00:24:43;;;;;;;3.15;2.17;;;;;;;;;;5057578;28;20052;-45
2023/02/08 00:27:09;;;;;;;3.95;2.42;;;;;;;;;;5053333;28;20017;-45
2023/02/08 00:29:35;;;;;;;2.70;2.00;;;;;;;;;;5055305;28;20032;-45
2023/02/08 00:32:01;;;;;;;3.42;2.00;;;;;;;;;;5054681;28;20040;-46
2023/02/08 00:34:27;;;;;;;3.05;2.10;;;;;;;;;;5057186;28;20515;-46
2023/02/08 00:36:53;;;;;;;3.17;1.98;;;;;;;;;;5055572;28;20032;-46
2023/02/08 00:39:20;;;;;;;2.88;1.95;;;;;;;;;;5053224;28;20017;-46
2023/02/08 00:41:46;;;;;;;3.38;2.47;;;;;;;;;;5058668;28;20139;-45
2023/02/08 00:44:12;;;;;;;3.47;2.35;;;;;;;;;;5058371;28;20373;-45
2023/02/08 00:46:38;;;;;;;2.88;1.90;;;;;;;;;;5056799;28;20031;-45
2023/02/08 00:49:04;;;;;;;3.35;1.80;;;;;;;;;;5061479;28;20374;-45
2023/02/08 00:51:30;;;;;;;2.72;1.90;;;;;;;;;;5052461;28;20033;-45
2023/02/08 00:53:56;;;;;;;2.85;2.00;;;;;;;;;;5058298;28;20032;-45
2023/02/08 00:56:22;;;;;;;3.05;2.00;;;;;;;;;;5056482;28;20024;-46
2023/02/08 00:58:48;;;;;;;2.40;1.95;;;;;;;;;;5057048;28;20118;-45
2023/02/08 01:01:14;;;;;;;4.13;2.22;;;;;;;;;;5058127;28;20477;-45
2023/02/08 01:03:41;;;;;;;4.57;2.30;;;;;;;;;;5059491;28;20024;-46
2023/02/08 01:06:09;;;;;;;2.78;1.95;;;;;;;;;;5062318;28;20409;-48
2023/02/08 01:08:35;;;;;;;3.22;2.10;;;;;;;;;;5068756;28;20078;-47
2023/02/08 01:11:12;;;;;;;3.53;2.22;;;;;;;;;;5073444;28;20020;-46
2023/02/08 01:13:38;;;;;;;2.42;1.80;;;;;;;;;;5065968;28;20028;-45
2023/02/08 01:16:25;;;;;;;2.50;1.88;;;;;;;;;;5074273;28;20029;-44
2023/02/08 01:18:52;;;;;;;3.38;2.03;;;;;;;;;;5065542;28;20039;-45
2023/02/08 01:21:19;;;;;;;3.28;2.33;;;;;;;;;;5070141;28;20384;-45
2023/02/08 01:23:46;;;;;;;3.17;2.40;;;;;;;;;;5071436;28;20485;-45
2023/02/08 01:26:13;;;;;;;3.55;1.92;;;;;;;;;;5067923;28;20032;-45
2023/02/08 01:28:39;;;;;;;3.08;1.77;;;;;;;;;;5072959;28;20020;-45
2023/02/08 01:31:09;;;;;;;3.10;1.98;;;;;;;;;;5063841;28;20085;-45
2023/02/08 01:33:35;;;;;;;2.72;1.92;;;;;;;;;;5067535;28;20078;-44
2023/02/08 01:36:02;;;;;;;3.38;2.00;;;;;;;;;;5064555;28;20033;-45
2023/02/08 01:38:28;;;;;;;3.85;2.10;;;;;;;;;;5071439;28;20196;-45
2023/02/08 01:40:54;;;;;;;2.97;1.67;;;;;;;;;;5069163;28;20513;-47
2023/02/08 01:43:23;;;;;;;3.22;2.10;;;;;;;;;;5066339;28;20029;-45
2023/02/08 01:45:49;;;;;;;2.92;1.98;;;;;;;;;;5073139;28;20474;-45
2023/02/08 01:48:18;;;;;;;3.15;1.83;;;;;;;;;;5059510;28;20025;-45
2023/02/08 01:50:49;;;;;;;3.92;2.22;;;;;;;;;;5071631;28;20036;-45
2023/02/08 01:53:15;;;;;;;2.85;1.90;;;;;;;;;;5069285;28;20040;-45
2023/02/08 01:55:44;;;;;;;3.08;2.00;;;;;;;;;;5070252;28;20028;-47
2023/02/08 01:58:11;;;;;;;2.45;1.73;;;;;;;;;;5065048;28;20021;-46
2023/02/08 02:00:37;;;;;;;2.92;2.10;;;;;;;;;;5069615;28;20025;-45
2023/02/08 02:03:04;;;;;;;2.20;1.70;;;;;;;;;;5068247;28;20036;-45
2023/02/08 02:05:35;;;;;;;3.53;1.90;;;;;;;;;;5068556;28;20044;-45
2023/02/08 02:08:01;;;;;;;3.65;1.80;;;;;;;;;;5072914;28;20456;-45
2023/02/08 02:10:28;;;;;;;2.47;1.90;;;;;;;;;;5070277;28;20025;-45
2023/02/08 02:12:55;;;;;;;2.72;2.00;;;;;;;;;;5068605;28;20040;-45
2023/02/08 02:15:21;;;;;;;2.90;1.75;;;;;;;;;;5067305;28;20062;-46
2023/02/08 02:17:47;;;;;;;2.80;1.83;;;;;;;;;;5058124;28;20421;-45
2023/02/08 02:20:16;;;;;;;3.08;2.08;;;;;;;;;;5068369;28;20389;-45
2023/02/08 02:23:02;;;;;;;2.50;1.67;;;;;;;;;;5045727;28;20032;-45
2023/02/08 02:25:46;;;;;;;3.10;2.00;;;;;;;;;;5064756;28;20062;-47
2023/02/08 02:28:31;;;;;;;2.83;1.90;;;;;;;;;;5070177;28;20102;-46
2023/02/08 02:31:10;;;;;;;2.22;1.77;;;;;;;;;;5064906;28;20044;-45
2023/02/08 02:33:43;;;;;;;3.60;1.88;;;;;;;;;;5060823;28;20469;-45
2023/02/08 02:36:27;;;;;;;2.63;1.80;;;;;;;;;;5071541;28;20052;-45
2023/02/08 02:39:12;;;;;;;2.78;1.90;;;;;;;;;;5070813;28;20036;-45
2023/02/08 02:44:45;;;;;;;2.63;1.83;;;;;;;;;;5030692;28;20063;-46
2023/02/08 02:47:17;;;;;;;3.90;2.33;;;;;;;;;;5069600;28;20029;-46
2023/02/08 02:49:48;;;;;;;2.60;1.83;;;;;;;;;;5062775;28;20552;-46
2023/02/08 02:52:32;;;;;;;3.00;2.10;;;;;;;;;;5061941;28;20039;-45
2023/02/08 02:55:00;;;;;;;2.90;2.03;;;;;;;;;;5056893;28;20017;-45
2023/02/08 02:57:31;;;;;;;2.58;1.80;;;;;;;;;;5049874;28;20020;-45
2023/02/08 02:59:57;;;;;;;3.00;2.42;;;;;;;;;;5072247;28;20028;-46
2023/02/08 03:02:24;;;;;;;2.83;2.03;;;;;;;;;;5072043;28;20049;-45
2023/02/08 03:04:52;;;;;;;3.20;2.00;;;;;;;;;;5071834;28;20029;-46
2023/02/08 03:07:18;;;;;;;2.17;1.80;;;;;;;;;;5071230;28;20123;-45
2023/02/08 03:09:44;;;;;;;2.78;2.15;;;;;;;;;;5072135;28;20574;-47
2023/02/08 03:12:29;;;;;;;4.35;2.10;;;;;;;;;;5068820;28;20037;-45
2023/02/08 03:14:58;;;;;;;3.97;2.00;;;;;;;;;;5071289;28;20168;-46
2023/02/08 03:17:27;;;;;;;3.45;1.85;;;;;;;;;;5070108;28;20031;-45
2023/02/08 03:20:01;;;;;;;3.20;2.10;;;;;;;;;;5067882;28;20032;-49
2023/02/08 03:22:30;;;;;;;3.17;1.88;;;;;;;;;;5066593;28;20039;-46
2023/02/08 03:25:01;;;;;;;3.05;2.20;;;;;;;;;;5062801;28;20025;-46
2023/02/08 03:27:35;;;;;;;3.25;2.03;;;;;;;;;;5071329;28;20382;-45
2023/02/08 03:30:04;;;;;;;2.55;1.98;;;;;;;;;;5062850;28;20375;-46
2023/02/08 03:32:40;;;;;;;3.25;2.25;;;;;;;;;;5060508;28;20029;-47
2023/02/08 03:35:11;;;;;;;3.15;2.00;;;;;;;;;;5069885;28;20101;-45
2023/02/08 03:37:41;;;;;;;3.92;2.30;;;;;;;;;;5072130;28;20151;-45
2023/02/08 03:40:17;;;;;;;2.50;1.70;;;;;;;;;;5059191;28;20059;-46
2023/02/08 03:42:44;;;;;;;2.80;2.03;;;;;;;;;;5062056;28;20090;-45
2023/02/08 03:45:14;;;;;;;3.30;1.77;;;;;;;;;;5060199;28;20415;-45
2023/02/08 03:47:41;;;;;;;2.75;2.25;;;;;;;;;;5062728;28;20051;-46
2023/02/08 03:50:08;;;;;;;3.13;2.17;;;;;;;;;;5070747;28;20473;-45
2023/02/08 03:52:35;;;;;;;2.90;2.00;;;;;;;;;;5062932;28;20043;-45
2023/02/08 03:55:03;;;;;;;3.30;2.30;;;;;;;;;;5058092;28;20504;-45
2023/02/08 03:57:31;;;;;;;3.33;1.90;;;;;;;;;;5050410;28;20055;-45
2023/02/08 03:59:59;;;;;;;2.92;1.98;;;;;;;;;;5070732;28;21572;-45
2023/02/08 04:02:27;;;;;;;2.35;2.00;;;;;;;;;;5066343;28;20036;-45
2023/02/08 04:04:55;;;;;;;2.88;1.88;;;;;;;;;;5059137;28;20533;-45
2023/02/08 04:07:21;;;;;;;2.47;1.90;;;;;;;;;;5068864;28;20045;-45
2023/02/08 04:09:47;;;;;;;3.55;2.42;;;;;;;;;;5070661;28;20430;-46
2023/02/08 04:12:13;;;;;;;2.83;2.28;;;;;;;;;;5070294;28;20032;-45
2023/02/08 04:14:39;;;;;;;2.70;2.10;;;;;;;;;;5059582;28;20112;-45
2023/02/08 04:17:05;;;;;;;3.03;1.90;;;;;;;;;;5069327;28;20696;-47
2023/02/08 04:19:31;;;;;;;3.40;1.85;;;;;;;;;;5063129;28;20654;-46
2023/02/08 04:21:57;;;;;;;3.28;2.30;;;;;;;;;;5067781;28;20666;-45
2023/02/08 04:24:23;;;;;;;2.53;1.88;;;;;;;;;;5055633;28;20086;-45
2023/02/08 04:26:49;;;;;;;2.65;1.85;;;;;;;;;;5070112;28;20052;-45
2023/02/08 04:29:15;;;;;;;2.67;2.13;;;;;;;;;;5069512;28;20469;-46
2023/02/08 04:31:41;;;;;;;3.63;2.45;;;;;;;;;;5068823;28;20039;-45
2023/02/08 04:34:07;;;;;;;4.07;2.55;;;;;;;;;;5066323;28;20398;-45
2023/02/08 04:36:33;;;;;;;2.63;2.22;;;;;;;;;;5066654;28;20112;-46
2023/02/08 04:38:59;;;;;;;2.35;1.83;;;;;;;;;;5062205;28;20382;-44
2023/02/08 04:41:25;;;;;;;4.00;1.90;;;;;;;;;;5064740;28;20104;-46
2023/02/08 04:43:51;;;;;;;2.80;2.17;;;;;;;;;;5068480;28;20540;-45
2023/02/08 04:46:17;;;;;;;2.50;2.15;;;;;;;;;;5070963;28;20069;-45
2023/02/08 04:48:43;;;;;;;2.42;2.08;;;;;;;;;;5066725;28;20028;-45
2023/02/08 04:51:09;;;;;;;2.83;2.13;;;;;;;;;;5059677;28;20415;-44
2023/02/08 04:53:35;;;;;;;3.08;2.20;;;;;;;;;;5064214;28;20024;-46
2023/02/08 04:56:01;;;;;;;3.38;2.15;;;;;;;;;;5075054;28;20031;-45
2023/02/08 04:58:27;;;;;;;3.35;2.25;;;;;;;;;;5073674;28;20017;-45
2023/02/08 05:00:53;;;;;;;2.90;2.08;;;;;;;;;;5074876;28;20032;-45
2023/02/08 05:03:19;;;;;;;3.45;2.10;;;;;;;;;;5073855;28;20052;-47
2023/02/08 05:05:45;;;;;;;2.55;1.90;;;;;;;;;;5074340;28;20021;-44
2023/02/08 05:08:11;;;;;;;3.75;2.25;;;;;;;;;;5074557;28;20485;-45
2023/02/08 05:10:37;;;;;;;2.88;1.92;;;;;;;;;;5071697;28;20020;-45
2023/02/08 05:13:03;;;;;;;3.33;2.33;;;;;;;;;;5066028;28;20039;-45
2023/02/08 05:15:29;;;;;;;2.67;2.22;;;;;;;;;;5072933;28;20024;-45
2023/02/08 05:17:55;;;;;;;3.08;1.98;;;;;;;;;;5062572;28;20548;-45
2023/02/08 05:20:21;;;;;;;2.78;1.83;;;;;;;;;;5071754;28;20029;-45
2023/02/08 05:22:47;;;;;;;3.05;1.98;;;;;;;;;;5065563;28;20474;-45
2023/02/08 05:25:13;;;;;;;3.03;2.20;;;;;;;;;;5071227;28;20078;-45
2023/02/08 05:27:39;;;;;;;3.03;2.00;;;;;;;;;;5071687;28;20021;-44
2023/02/08 05:30:05;;;;;;;3.25;2.60;;;;;;;;;;5071372;28;20377;-45
2023/02/08 05:32:31;;;;;;;3.25;2.33;;;;;;;;;;5072542;28;20584;-45
2023/02/08 05:34:57;;;;;;;3.00;2.50;;;;;;;;;;5063933;28;20031;-45
2023/02/08 05:37:23;;;;;;;3.33;2.15;;;;;;;;;;5072789;28;20461;-45
2023/02/08 05:39:49;;;;;;;3.40;2.25;;;;;;;;;;5072878;28;20032;-45
2023/02/08 05:42:15;;;;;;;3.10;2.47;;;;;;;;;;5071036;28;20032;-44
2023/02/08 05:44:41;;;;;;;2.60;2.05;;;;;;;;;;5062694;28;20033;-45
2023/02/08 05:47:07;;;;;;;2.90;1.95;;;;;;;;;;5067508;28;20033;-46
2023/02/08 05:49:33;;;;;;;3.30;2.47;;;;;;;;;;5070263;28;20037;-45
2023/02/08 05:51:59;;;;;;;4.13;2.40;;;;;;;;;;5073486;28;20028;-45
2023/02/08 05:54:25;;;;;;;3.22;2.25;;;;;;;;;;5072077;28;20033;-46
2023/02/08 05:56:51;;;;;;;3.17;2.45;;;;;;;;;;5069971;28;20051;-45
2023/02/08 05:59:17;;;;;;;3.70;2.53;;;;;;;;;;5072298;28;20059;-45
2023/02/08 06:01:43;;;;;;;3.53;2.20;;;;;;;;;;5071436;28;20064;-45
2023/02/08 06:04:09;;;;;;;2.92;2.20;;;;;;;;;;5064472;28;20025;-46
2023/02/08 06:06:35;;;;;;;3.22;2.30;;;;;;;;;;5068192;28;20044;-47
2023/02/08 06:09:01;;;;;;;3.60;2.28;;;;;;;;;;5072736;28;20372;-45
2023/02/08 06:11:27;;;;;;;3.42;2.55;;;;;;;;;;5071721;28;20025;-47
2023/02/08 06:13:53;;;;;;;3.70;2.30;;;;;;;;;;5071344;28;20371;-46
2023/02/08 06:16:19;;;;;;;3.38;2.10;;;;;;;;;;5069122;28;20028;-49
2023/02/08 06:18:45;;;;;;;2.47;1.90;;;;;;;;;;5065042;28;20060;-45
2023/02/08 06:21:11;;;;;;;3.45;2.50;;;;;;;;;;5065031;28;20016;-47
2023/02/08 06:23:38;;;;;;;3.78;2.30;;;;;;;;;;5071738;28;20107;-45
2023/02/08 06:26:04;;;;;;;3.97;2.55;;;;;;;;;;5067099;28;20486;-45
2023/02/08 06:28:30;;;;;;;3.55;2.30;;;;;;;;;;5070328;28;20044;-45
2023/02/08 06:30:56;;;;;;;3.65;2.47;;;;;;;;;;5065898;28;20083;-45
2023/02/08 06:33:22;;;;;;;3.08;2.20;;;;;;;;;;5071602;28;20032;-45
2023/02/08 06:35:50;;;;;;;3.42;2.42;;;;;;;;;;5069837;28;20382;-45
2023/02/08 06:38:16;;;;;;;2.78;2.03;;;;;;;;;;5062945;28;20530;-45
2023/02/08 06:40:42;;;;;;;4.78;3.33;;;;;;;;;;5071983;28;20021;-44
2023/02/08 06:43:08;;;;;;;3.97;2.58;;;;;;;;;;5072333;28;20433;-45
2023/02/08 06:45:34;;;;;;;2.70;2.00;;;;;;;;;;5062965;28;20033;-44
2023/02/08 06:48:00;;;;;;;3.58;1.95;;;;;;;;;;5068570;28;20025;-45
2023/02/08 06:50:26;;;;;;;7.05;2.83;;;;;;;;;;5067799;28;20025;-45
2023/02/08 06:52:52;;;;;;;4.30;1.80;;;;;;;;;;5068155;28;20016;-44
2023/02/08 06:55:18;;;;;;;3.08;2.05;;;;;;;;;;5064424;28;20099;-45
2023/02/08 06:57:44;;;;;;;4.55;2.13;;;;;;;;;;5072574;28;20386;-47
2023/02/08 07:00:10;;;;;;;3.17;2.00;;;;;;;;;;5071709;28;20095;-45
2023/02/08 07:02:36;;;;;;;3.22;1.90;;;;;;;;;;5067310;28;20047;-46
2023/02/08 07:05:02;;;;;;;3.80;2.55;;;;;;;;;;5072261;28;20012;-56
2023/02/08 07:07:28;;;;;;;3.13;2.00;;;;;;;;;;5070950;28;20040;-46
2023/02/08 07:09:54;;;;;;;3.33;2.35;;;;;;;;;;5074756;28;20477;-45
2023/02/08 07:12:20;;;;;;;4.72;2.75;;;;;;;;;;5071337;28;20028;-46
2023/02/08 07:14:46;;;;;;;3.70;2.70;;;;;;;;;;5071446;28;20033;-46
2023/02/08 07:17:12;;;;;;;4.55;2.13;;;;;;;;;;5069885;28;20047;-45
2023/02/08 07:19:39;;;;;;;5.18;2.13;;;;;;;;;;5066287;28;20024;-46
2023/02/08 07:22:08;;;;;;;2.90;1.90;;;;;;;;;;5057895;28;20572;-45
2023/02/08 07:24:35;;;;;;;7.20;2.20;;;;;;;;;;5066106;28;20531;-45
2023/02/08 07:27:01;;;;;;;5.45;2.60;;;;;;;;;;5061400;28;20490;-46
2023/02/08 07:29:28;;;;;;;4.57;3.00;;;;;;;;;;5063014;28;20020;-48
2023/02/08 07:31:54;;;;;;;4.85;2.67;;;;;;;;;;5069635;28;20032;-46
2023/02/08 07:34:20;;;;;;;6.18;2.22;;;;;;;;;;5065663;28;20825;-45
2023/02/08 07:36:48;;;;;;;2.90;2.30;;;;;;;;;;5069842;28;20023;-46
2023/02/08 07:39:14;;;;;;;3.60;2.50;;;;;;;;;;5043804;28;20369;-47
2023/02/08 07:41:40;;;;;;;4.38;2.40;;;;;;;;;;5067050;28;20470;-45
2023/02/08 07:44:06;;;;;;;4.68;2.17;;;;;;;;;;5043986;28;20041;-45
2023/02/08 07:46:32;;;;;;;3.50;2.00;;;;;;;;;;5069034;28;20074;-50
2023/02/08 07:48:59;;;;;;;4.18;2.10;;;;;;;;;;5065267;28;20060;-45
2023/02/08 07:51:25;;;;;;;3.13;2.10;;;;;;;;;;5067258;28;20052;-45
2023/02/08 07:53:51;;;;;;;4.57;2.60;;;;;;;;;;5063180;28;20028;-45
2023/02/08 07:56:17;;;;;;;4.45;2.30;;;;;;;;;;5064655;28;20029;-46
2023/02/08 07:58:43;;;;;;;4.60;2.70;;;;;;;;;;5067676;28;20025;-46
2023/02/08 08:01:10;;;;;;;6.28;2.65;;;;;;;;;;5065872;28;20098;-45
2023/02/08 08:03:36;;;;;;;3.55;2.17;;;;;;;;;;5063518;28;20029;-45
2023/02/08 08:06:02;;;;;;;5.47;2.70;;;;;;;;;;5068593;28;20032;-46
2023/02/08 08:08:28;;;;;;;3.55;2.03;;;;;;;;;;5067735;28;20025;-45
2023/02/08 08:10:56;;;;;;;3.40;2.30;;;;;;;;;;5066124;28;20034;-46
2023/02/08 08:13:22;;;;;;;4.95;1.95;;;;;;;;;;5064906;28;20028;-45
2023/02/08 08:15:48;;;;;;;4.75;2.58;;;;;;;;;;5059909;28;20035;-45
2023/02/08 08:18:14;;;;;;;4.28;2.42;;;;;;;;;;5059989;28;20411;-45
2023/02/08 08:20:40;;;;;;;3.70;2.55;;;;;;;;;;5059177;28;20027;-45
2023/02/08 08:23:06;;;;;;;3.45;2.50;;;;;;;;;;5066996;28;20037;-45
2023/02/08 08:25:32;;;;;;;5.22;2.38;;;;;;;;;;5060549;28;20087;-44
2023/02/08 08:27:58;;;;;;;3.72;2.83;;;;;;;;;;5070205;28;20082;-46
2023/02/08 08:30:24;;;;;;;3.95;2.50;;;;;;;;;;5048066;28;20448;-45
2023/02/08 08:32:50;;;;;;;3.60;2.20;;;;;;;;;;5062626;28;20095;-45
2023/02/08 08:35:16;;;;;;;3.70;2.63;;;;;;;;;;5061678;28;20049;-46
2023/02/08 08:37:42;;;;;;;6.80;3.00;;;;;;;;;;5066008;28;20020;-45
2023/02/08 08:40:08;;;;;;;9.63;2.90;;;;;;;;;;5069765;28;20033;-46
2023/02/08 08:42:35;;;;;;;4.15;2.65;;;;;;;;;;5057117;28;20509;-45
2023/02/08 08:45:01;;;;;;;5.53;2.95;;;;;;;;;;5057705;28;20045;-47
2023/02/08 08:47:27;;;;;;;4.95;2.20;;;;;;;;;;5065200;28;20070;-46
2023/02/08 08:49:53;;;;;;;4.13;2.67;;;;;;;;;;5061087;28;20045;-45
2023/02/08 08:52:20;;;;;;;4.28;2.58;;;;;;;;;;5068821;28;20428;-46
2023/02/08 08:54:46;;;;;;;4.68;2.30;;;;;;;;;;5065749;28;20090;-46
2023/02/08 08:57:12;;;;;;;3.80;2.60;;;;;;;;;;5062569;28;20028;-46
2023/02/08 08:59:38;;;;;;;3.72;2.70;;;;;;;;;;5066550;28;20051;-45
2023/02/08 09:02:04;;;;;;;3.92;2.33;;;;;;;;;;5076577;28;20079;-47
2023/02/08 09:04:30;;;;;;;5.45;2.50;;;;;;;;;;5057430;28;20205;-48
2023/02/08 09:06:56;;;;;;;4.35;2.28;;;;;;;;;;5065093;28;20098;-47
2023/02/08 09:09:22;;;;;;;5.20;3.20;;;;;;;;;;5034972;28;20376;-46
2023/02/08 09:11:49;;;;;;;4.50;2.65;;;;;;;;;;5057058;28;20474;-48
2023/02/08 09:14:15;;;;;;;3.80;2.47;;;;;;;;;;5038717;28;20044;-46
2023/02/08 09:16:41;;;;;;;6.38;2.45;;;;;;;;;;5045455;28;20028;-49
2023/02/08 09:19:09;;;;;;;4.85;2.90;;;;;;;;;;5038485;28;20127;-45
2023/02/08 09:21:36;;;;;;;6.15;3.03;;;;;;;;;;5044691;28;20013;-48
2023/02/08 09:24:02;;;;;;;4.07;2.17;;;;;;;;;;5048797;28;20043;-48
2023/02/08 09:26:28;;;;;;;4.10;2.55;;;;;;;;;;5043317;28;20102;-48
2023/02/08 09:28:54;;;;;;;4.60;2.70;;;;;;;;;;5041548;28;20029;-45
2023/02/08 09:31:23;;;;;;;5.40;3.25;;;;;;;;;;5051968;28;20037;-45
2023/02/08 09:33:50;;;;;;;4.13;2.67;;;;;;;;;;5043287;28;20100;-47
2023/02/08 09:36:16;;;;;;;4.25;2.65;;;;;;;;;;5048349;28;20092;-46
2023/02/08 09:38:43;;;;;;;6.40;2.60;;;;;;;;;;5045114;28;20032;-46
2023/02/08 09:41:09;;;;;;;3.25;2.20;;;;;;;;;;5054431;28;20515;-47
2023/02/08 09:43:42;;;;;;;4.90;3.08;;;;;;;;;;5036829;28;20052;-48
2023/02/08 09:46:12;;;;;;;3.65;2.50;;;;;;;;;;5048368;28;20390;-47
2023/02/08 09:48:39;;;;;;;5.05;2.92;;;;;;;;;;5041795;28;20021;-46
2023/02/08 09:51:24;;;;;;;4.30;2.60;;;;;;;;;;5054772;28;20395;-48
2023/02/08 09:53:54;;;;;;;5.50;3.15;;;;;;;;;;5044708;28;20017;-47
2023/02/08 09:56:25;;;;;;;4.65;2.80;;;;;;;;;;5046549;28;20033;-51
2023/02/08 09:58:52;;;;;;;4.32;2.78;;;;;;;;;;5042937;28;20033;-51
2023/02/08 10:01:21;;;;;;;3.40;2.45;;;;;;;;;;5044514;28;20029;-51
2023/02/08 10:03:48;;;;;;;4.72;2.35;;;;;;;;;;5039656;28;20447;-48
2023/02/08 10:06:15;;;;;;;6.30;2.80;;;;;;;;;;5047400;28;20481;-47
2023/02/08 10:08:42;;;;;;;2.90;2.17;;;;;;;;;;5038026;28;20043;-47
2023/02/08 10:11:11;;;;;;;3.90;2.65;;;;;;;;;;5044975;28;20052;-48
2023/02/08 10:13:56;;;;;;;4.65;2.20;;;;;;;;;;5042300;28;20108;-46
2023/02/08 10:16:27;;;;;;;4.43;2.90;;;;;;;;;;5042673;28;20433;-46
2023/02/08 10:19:20;;;;;;;5.18;2.78;;;;;;;;;;5044740;28;20126;-49
2023/02/08 10:21:46;;;;;;;9.02;3.08;;;;;;;;;;5037587;28;20056;-48
2023/02/08 10:24:12;;;;;;;5.60;3.00;;;;;;;;;;5039968;28;20029;-46
2023/02/08 10:26:45;;;;;;;4.50;2.90;;;;;;;;;;5045666;28;20140;-47
2023/02/08 10:29:25;;;;;;;4.10;2.63;;;;;;;;;;5047141;28;20028;-46
2023/02/08 10:32:06;;;;;;;5.13;2.80;;;;;;;;;;5046617;28;20081;-46
2023/02/08 10:34:32;;;;;;;6.00;2.83;;;;;;;;;;5047016;28;20137;-48
2023/02/08 10:37:00;;;;;;;3.28;2.40;;;;;;;;;;5048900;28;20108;-49
2023/02/08 10:39:29;;;;;;;6.85;3.20;;;;;;;;;;5043637;28;20087;-48
2023/02/08 10:41:55;;;;;;;5.00;3.05;;;;;;;;;;5043773;28;20033;-46
2023/02/08 10:44:30;;;;;;;4.50;2.40;;;;;;;;;;5050802;28;20040;-46
2023/02/08 10:47:16;;;;;;;7.90;3.03;;;;;;;;;;5047818;28;20022;-46
2023/02/08 10:49:49;;;;;;;3.85;2.75;;;;;;;;;;5032371;28;20032;-47
2023/02/08 10:52:15;;;;;;;4.05;2.85;;;;;;;;;;5037623;28;20025;-45
2023/02/08 10:54:41;;;;;;;3.60;2.28;;;;;;;;;;5041292;28;20471;-46
2023/02/08 10:57:13;;;;;;;6.35;3.03;;;;;;;;;;5043411;28;20056;-46
2023/02/08 10:59:50;;;;;;;4.10;3.17;;;;;;;;;;5052508;28;20025;-46
2023/02/08 11:02:22;;;;;;;4.70;2.88;;;;;;;;;;5051508;28;20033;-47
2023/02/08 11:04:48;;;;;;;;;;;;;;;;;;5052418;28;20037;-48
2023/02/08 11:07:20;;;;;;;8.40;3.55;;;;;;;;;;5062115;28;19920;-46
2023/02/08 11:09:46;;;;;;;;;;;;;;;;;;5071624;28;20020;-46
2023/02/08 11:12:18;;;;;;;20.63;7.63;;;;;;;;;;5071894;28;19912;-46
2023/02/08 11:14:47;;;;;;;16.05;7.50;;;;;;;;;;5070789;28;20103;-49
2023/02/08 11:17:30;;;;;;;12.23;7.25;;;;;;;;;;5070253;28;20024;-45
2023/02/08 11:19:57;;;;;;;17.25;7.25;;;;;;;;;;5067851;28;20108;-47
2023/02/08 11:22:25;;;;;;;13.75;6.85;;;;;;;;;;5068667;28;20039;-47
2023/02/08 11:24:56;;;;;;;13.73;7.22;;;;;;;;;;5063007;28;20033;-45
2023/02/08 11:27:25;;;;;;;14.20;6.83;;;;;;;;;;5070479;28;20032;-46
2023/02/08 11:30:11;;;;;;;14.38;6.07;;;;;;;;;;5066325;28;20497;-47
2023/02/08 11:32:37;;;;;;;13.13;6.22;;;;;;;;;;5064628;28;20473;-47
2023/02/08 11:35:21;;;;;;;11.63;6.28;;;;;;;;;;5063648;28;20017;-48
2023/02/08 11:37:52;;;;;;;9.98;5.65;;;;;;;;;;5065037;28;20020;-48
2023/02/08 11:40:20;;;;;;;10.77;5.43;;;;;;;;;;5069396;28;20020;-47
2023/02/08 11:42:46;;;;;;;9.07;4.78;;;;;;;;;;5066685;28;20032;-48
2023/02/08 11:45:23;;;;;;;8.30;4.82;;;;;;;;;;5064268;28;20374;-44
2023/02/08 11:47:49;;;;;;;9.90;4.57;;;;;;;;;;5061528;28;20079;-47
2023/02/08 11:50:27;;;;;;;12.90;5.97;;;;;;;;;;5058606;28;20064;-46
2023/02/08 11:53:00;;;;;;;13.18;4.75;;;;;;;;;;5068637;28;20110;-44
2023/02/08 11:55:28;;;;;;;10.85;4.28;;;;;;;;;;5067047;28;20048;-48
2023/02/08 11:58:13;;;;;;;9.77;4.28;;;;;;;;;;5068285;28;20048;-44
2023/02/08 12:00:40;;;;;;;8.85;3.55;;;;;;;;;;5067482;28;20082;-47
2023/02/08 12:03:14;;;;;;;13.88;4.32;;;;;;;;;;5062622;28;20077;-46
2023/02/08 12:05:40;;;;;;;11.82;4.30;;;;;;;;;;5071054;28;20036;-44
2023/02/08 12:08:18;;;;;;;8.57;4.75;;;;;;;;;;5070195;28;20151;-44
2023/02/08 12:10:50;;;;;;;7.13;3.72;;;;;;;;;;5064228;28;20481;-45
2023/02/08 12:13:27;;;;;;;7.55;3.67;;;;;;;;;;5045696;28;20048;-44
2023/02/08 12:16:12;;;;;;;8.70;3.67;;;;;;;;;;5064520;28;20293;-45
2023/02/08 12:18:44;;;;;;;8.93;4.00;;;;;;;;;;5062411;28;20074;-44
2023/02/08 12:21:25;;;;;;;10.88;3.55;;;;;;;;;;5069988;28;20047;-46
2023/02/08 12:23:53;;;;;;;6.30;3.05;;;;;;;;;;5065702;28;20437;-43
2023/02/08 12:26:19;;;;;;;7.32;3.63;;;;;;;;;;5068960;28;20455;-45
2023/02/08 12:29:03;;;;;;;7.50;3.92;;;;;;;;;;5065446;28;20112;-44
2023/02/08 12:31:38;;;;;;;5.38;3.20;;;;;;;;;;5064687;28;20039;-44
2023/02/08 12:34:07;;;;;;;9.70;3.47;;;;;;;;;;5038529;28;20482;-44
2023/02/08 12:36:45;;;;;;;4.90;2.97;;;;;;;;;;5068172;28;20098;-46
2023/02/08 12:42:23;;;;;;;6.30;2.92;;;;;;;;;;5066670;28;20102;-45
2023/02/08 12:45:08;;;;;;;7.20;3.35;;;;;;;;;;5067089;28;20040;-48
2023/02/08 12:47:53;;;;;;;7.45;3.90;;;;;;;;;;5069234;28;20074;-46
2023/02/08 12:50:26;;;;;;;6.97;3.58;;;;;;;;;;5065354;28;20027;-45
2023/02/08 12:52:56;;;;;;;4.78;3.15;;;;;;;;;;5066633;28;20063;-46
2023/02/08 12:55:34;;;;;;;6.50;3.28;;;;;;;;;;5065804;28;20028;-44
2023/02/08 12:58:05;;;;;;;5.07;2.60;;;;;;;;;;5071076;28;20024;-44
2023/02/08 13:00:32;;;;;;;6.57;2.67;;;;;;;;;;5068064;28;20632;-44
2023/02/08 13:03:17;;;;;;;5.28;3.17;;;;;;;;;;5071008;28;20025;-44
2023/02/08 13:05:45;;;;;;;6.15;3.10;;;;;;;;;;5070239;28;20033;-44
2023/02/08 13:08:19;;;;;;;5.43;3.10;;;;;;;;;;5062022;28;20068;-44
2023/02/08 13:10:49;;;;;;;5.43;3.38;;;;;;;;;;5078359;28;20071;-46
2023/02/08 13:13:21;;;;;;;4.88;2.83;;;;;;;;;;5073526;28;20047;-46
2023/02/08 13:16:08;;;;;;;5.30;2.97;;;;;;;;;;5074599;28;20032;-44
2023/02/08 13:18:37;;;;;;;5.22;2.90;;;;;;;;;;5060498;28;20032;-44
2023/02/08 13:21:06;;;;;;;5.20;3.13;;;;;;;;;;5065588;28;20025;-45
2023/02/08 13:23:47;;;;;;;6.72;3.10;;;;;;;;;;5069191;28;20032;-45
2023/02/08 13:26:15;;;;;;;4.63;2.53;;;;;;;;;;5069985;28;20589;-44
2023/02/08 13:28:47;;;;;;;6.30;3.17;;;;;;;;;;5062299;28;20347;-46
2023/02/08 13:31:17;;;;;;;5.47;3.37;;;;;;;;;;5063213;28;20155;-45
2023/02/08 13:33:45;;;;;;;6.25;3.35;;;;;;;;;;5064445;28;20274;-45
2023/02/08 13:36:20;;;;;;;6.53;3.25;;;;;;;;;;5070398;28;20032;-45
2023/02/08 13:38:47;;;;;;;7.22;2.78;;;;;;;;;;5060230;28;21906;-47
2023/02/08 13:41:16;;;;;;;4.95;2.65;;;;;;;;;;5068413;28;20017;-45
2023/02/08 13:43:46;;;;;;;5.82;3.35;;;;;;;;;;5069085;28;20036;-46
2023/02/08 13:46:12;;;;;;;5.20;3.00;;;;;;;;;;5047029;28;20753;-46
2023/02/08 13:48:43;;;;;;;6.18;3.28;;;;;;;;;;5068058;28;20021;-47
2023/02/08 13:51:29;;;;;;;4.68;2.83;;;;;;;;;;5057438;28;20116;-45
2023/02/08 13:53:55;;;;;;;6.65;2.92;;;;;;;;;;5059324;28;20049;-46
2023/02/08 13:56:36;;;;;;;5.95;3.20;;;;;;;;;;5069647;28;20442;-45
2023/02/08 13:59:04;;;;;;;5.43;2.78;;;;;;;;;;5060589;28;20111;-46
2023/02/08 14:01:34;;;;;;;4.65;2.58;;;;;;;;;;5057915;28;20330;-46
2023/02/08 14:04:06;;;;;;;5.50;2.63;;;;;;;;;;5063387;28;20029;-45
2023/02/08 14:06:32;;;;;;;;;;;;;;;;;;5069757;28;20052;-45
2023/02/08 14:09:05;;;;;;;4.03;2.45;;;;;;;;;;5063187;28;19935;-47
2023/02/08 14:11:39;;;;;;;7.57;3.25;;;;;;;;;;5067569;28;20032;-46
2023/02/08 14:14:25;;;;;;;3.90;2.35;;;;;;;;;;5067845;28;20039;-46
2023/02/08 14:17:03;;;;;;;3.72;2.55;;;;;;;;;;5060748;28;20043;-46
2023/02/08 14:19:39;;;;;;;5.20;2.63;;;;;;;;;;5062364;28;20112;-47
2023/02/08 14:22:05;;;;;;;4.05;2.13;;;;;;;;;;5068279;28;20072;-47
2023/02/08 14:24:33;;;;;;;5.20;2.92;;;;;;;;;;5066532;28;20273;-46
2023/02/08 14:27:07;;;;;;;3.80;2.28;;;;;;;;;;5070496;28;20557;-46
2023/02/08 14:29:33;;;;;;;4.82;2.58;;;;;;;;;;5060858;28;20031;-46
2023/02/08 14:31:59;;;;;;;6.28;2.47;;;;;;;;;;5064675;28;20536;-48
2023/02/08 14:34:31;;;;;;;3.17;2.47;;;;;;;;;;5061009;28;20092;-46
2023/02/08 14:36:58;;;;;;;5.15;2.33;;;;;;;;;;5067654;28;20029;-45
2023/02/08 14:39:29;;;;;;;3.13;2.08;;;;;;;;;;5062825;28;20033;-44
2023/02/08 14:42:00;;;;;;;5.03;2.70;;;;;;;;;;5067970;28;20057;-46
2023/02/08 14:44:38;;;;;;;4.63;2.58;;;;;;;;;;5051983;28;20032;-47
2023/02/08 14:47:11;;;;;;;5.53;2.97;;;;;;;;;;5064619;28;20029;-44
2023/02/08 14:49:39;;;;;;;4.40;2.38;;;;;;;;;;5056440;28;20028;-42
2023/02/08 14:52:11;;;;;;;3.97;2.60;;;;;;;;;;5068365;28;20407;-45
2023/02/08 14:54:41;;;;;;;5.00;2.70;;;;;;;;;;5040537;28;20104;-45
2023/02/08 14:57:14;;;;;;;4.95;2.45;;;;;;;;;;5070144;28;20032;-44
2023/02/08 14:59:40;;;;;;;5.57;2.85;;;;;;;;;;5069975;28;20044;-45